Andover, New Hampshire
Current Conditions -  °F | °C
As of 8:15 AM on Saturday 01 Nov 2014 (Local Time) from KLCI Reporting Station
Overcast Overcast  
Wind Chill: 36°   Ceiling: 2300
Heat Index: 43°   Visibility: 10mi
Dew Point: 32°   Wind: 14mph
Humidity: 66%   Direction: 60°ENE
Pressure: 29.94"   Gusts: NA
Location:  43.44°N, 71.82°W
Report Text: KLCI 011215Z AUTO 06012KT 10SM BKN023 OVC032 06/00 A2994 RMK AO1
Loading
Personal Weather Stations






























Interactive Weather Map
Tropical Storm Tracking
New forecast layout! Learn more

10-Day Weather Forecast

Advertisements
Track Severe Weather on mobile